createdAt,value
2022-12-24T00:01:05.610Z,99493.34
2022-12-24T00:03:33.370Z,99496.75
2022-12-24T00:06:04.977Z,99495.69
2022-12-24T00:08:31.742Z,99494.38
2022-12-24T00:10:58.710Z,99495.06
2022-12-24T00:13:25.495Z,99489.53
2022-12-24T00:15:52.290Z,99495.44
2022-12-24T00:18:19.527Z,99490.56
2022-12-24T00:20:47.849Z,99495.84
2022-12-24T00:23:15.250Z,99490.56
2022-12-24T00:25:42.180Z,99488.97
2022-12-24T00:28:09.001Z,99489.06
2022-12-24T00:30:38.273Z,99482.00
2022-12-24T00:33:05.639Z,99491.69
2022-12-24T00:35:36.465Z,99496.41
2022-12-24T00:38:04.015Z,99494.31
2022-12-24T00:40:31.504Z,99503.25
2022-12-24T00:42:59.011Z,99497.91
2022-12-24T00:45:27.999Z,99504.78
2022-12-24T00:47:56.410Z,99510.13
2022-12-24T00:50:23.229Z,99504.00
2022-12-24T00:52:50.007Z,99511.91
2022-12-24T00:55:17.949Z,99510.25
2022-12-24T00:57:44.736Z,99513.97
2022-12-24T01:00:11.837Z,99514.25
2022-12-24T01:02:41.272Z,99522.06
2022-12-24T01:05:11.208Z,99515.41
2022-12-24T01:07:40.147Z,99521.13
2022-12-24T01:10:07.730Z,99530.91
2022-12-24T01:12:35.196Z,99532.91
2022-12-24T01:15:02.023Z,99531.19
2022-12-24T01:17:28.932Z,99533.25
2022-12-24T01:19:55.819Z,99541.16
2022-12-24T01:22:22.564Z,99539.75
2022-12-24T01:24:49.436Z,99538.78
2022-12-24T01:27:16.210Z,99547.38
2022-12-24T01:29:42.984Z,99546.69
2022-12-24T01:32:09.769Z,99547.38
2022-12-24T01:34:36.804Z,99545.59
2022-12-24T01:37:03.575Z,99548.28
2022-12-24T01:39:30.301Z,99541.06
2022-12-24T01:42:15.818Z,99557.22
2022-12-24T01:44:44.515Z,99553.84
2022-12-24T01:47:17.991Z,99557.50
2022-12-24T01:49:57.769Z,99551.78
2022-12-24T01:52:28.271Z,99551.31
2022-12-24T01:55:01.291Z,99552.16
2022-12-24T01:57:31.237Z,99545.38
2022-12-24T02:00:01.348Z,99550.63
2022-12-24T02:02:33.734Z,99559.13
2022-12-24T02:05:14.833Z,99566.00
2022-12-24T02:07:41.643Z,99570.69
2022-12-24T02:10:11.482Z,99575.41
2022-12-24T02:12:39.002Z,99572.38
2022-12-24T02:15:07.674Z,99590.91
2022-12-24T02:17:50.748Z,99590.81
2022-12-24T02:20:43.703Z,99588.09
2022-12-24T02:23:38.727Z,99587.59
2022-12-24T02:26:28.302Z,99596.00
2022-12-24T02:28:58.112Z,99597.06
2022-12-24T02:31:30.880Z,99602.88
2022-12-24T02:34:03.878Z,99615.38
2022-12-24T02:36:35.539Z,99615.84
2022-12-24T02:39:09.024Z,99621.56
2022-12-24T02:41:57.458Z,99614.25
2022-12-24T02:44:28.001Z,99611.25
2022-12-24T02:46:55.491Z,99615.38
2022-12-24T02:49:22.270Z,99620.28
2022-12-24T02:51:49.101Z,99617.47
2022-12-24T02:54:16.921Z,99618.94
2022-12-24T02:56:46.666Z,99636.25
2022-12-24T02:59:31.538Z,99637.69
2022-12-24T03:02:20.151Z,99645.06
2022-12-24T03:04:55.491Z,99646.19
2022-12-24T03:07:28.883Z,99643.81
2022-12-24T03:10:06.803Z,99639.66
2022-12-24T03:12:42.118Z,99651.03
2022-12-24T03:15:11.128Z,99649.38
2022-12-24T03:17:39.565Z,99653.41
2022-12-24T03:20:08.913Z,99650.78
2022-12-24T03:22:36.262Z,99651.91
2022-12-24T03:25:03.715Z,99654.78
2022-12-24T03:27:32.638Z,99650.19
2022-12-24T03:29:59.673Z,99653.75
2022-12-24T03:32:32.075Z,99664.88
2022-12-24T03:34:58.864Z,99659.41
2022-12-24T03:37:26.876Z,99671.38
2022-12-24T03:39:53.625Z,99670.34
2022-12-24T03:42:20.400Z,99673.47
2022-12-24T03:44:47.236Z,99666.00
2022-12-24T03:47:17.254Z,99680.19
2022-12-24T03:49:44.032Z,99674.34
2022-12-24T03:52:10.872Z,99686.91
2022-12-24T03:54:37.571Z,99679.28
2022-12-24T03:57:04.402Z,99673.59
2022-12-24T03:59:31.189Z,99685.56
2022-12-24T04:01:58.306Z,99691.63
2022-12-24T04:04:25.378Z,99700.19
2022-12-24T04:06:52.494Z,99702.63
2022-12-24T04:09:20.018Z,99701.97
2022-12-24T04:11:47.083Z,99704.81
2022-12-24T04:14:13.985Z,99708.84
2022-12-24T04:16:40.733Z,99706.47
2022-12-24T04:19:07.512Z,99707.41
2022-12-24T04:21:34.223Z,99702.19
2022-12-24T04:24:00.981Z,99701.47
2022-12-24T04:26:27.774Z,99707.97
2022-12-24T04:28:54.783Z,99703.66
2022-12-24T04:31:21.513Z,99705.16
2022-12-24T04:33:51.489Z,99709.16
2022-12-24T04:36:19.465Z,99718.00
2022-12-24T04:38:47.413Z,99709.16
2022-12-24T04:41:23.085Z,99707.81
2022-12-24T04:43:51.526Z,99707.44
2022-12-24T04:46:21.124Z,99715.47
2022-12-24T04:48:49.839Z,99726.38
2022-12-24T04:51:17.591Z,99729.88
2022-12-24T04:53:44.709Z,99731.75
2022-12-24T04:56:13.473Z,99732.69
2022-12-24T04:58:40.207Z,99730.41
2022-12-24T05:01:09.208Z,99740.97
2022-12-24T05:03:36.065Z,99742.84
2022-12-24T05:06:04.830Z,99747.19
2022-12-24T05:08:31.547Z,99748.22
2022-12-24T05:10:59.293Z,99762.22
2022-12-24T05:13:31.964Z,99770.06
2022-12-24T05:16:05.151Z,99768.28
2022-12-24T05:18:31.969Z,99767.34
2022-12-24T05:20:59.147Z,99763.75
2022-12-24T05:23:44.682Z,99763.75
2022-12-24T05:26:22.645Z,99756.13
2022-12-24T05:28:51.247Z,99763.84
2022-12-24T05:31:18.425Z,99765.63
2022-12-24T05:33:45.420Z,99771.75
2022-12-24T05:36:12.270Z,99775.16
2022-12-24T05:38:39.141Z,99774.28
2022-12-24T05:41:06.613Z,99769.03
2022-12-24T05:43:33.349Z,99764.72
2022-12-24T05:46:06.120Z,99772.53
2022-12-24T05:48:32.984Z,99778.81
2022-12-24T05:50:59.740Z,99780.69
2022-12-24T05:53:26.447Z,99784.28
2022-12-24T05:55:53.270Z,99783.16
2022-12-24T05:58:19.973Z,99790.50
2022-12-24T06:00:54.537Z,99788.00
2022-12-24T06:03:21.490Z,99792.19
2022-12-24T06:05:48.426Z,99813.06
2022-12-24T06:08:15.199Z,99804.63
2022-12-24T06:10:42.012Z,99813.84
2022-12-24T06:13:08.788Z,99811.75
2022-12-24T06:15:36.221Z,99809.88
2022-12-24T06:18:03.434Z,99812.63
2022-12-24T06:20:30.211Z,99810.91
2022-12-24T06:22:56.903Z,99809.97
2022-12-24T06:25:23.745Z,99820.72
2022-12-24T06:27:50.475Z,99829.28
2022-12-24T06:30:18.694Z,99828.25
2022-12-24T06:32:45.566Z,99831.91
2022-12-24T06:35:12.423Z,99825.72
2022-12-24T06:37:39.121Z,99830.16
2022-12-24T06:40:06.398Z,99826.31
2022-12-24T06:42:33.065Z,99840.41
2022-12-24T06:45:05.567Z,99844.06
2022-12-24T06:47:34.885Z,99846.72
2022-12-24T06:50:01.810Z,99848.31
2022-12-24T06:52:28.505Z,99857.16
2022-12-24T06:54:55.435Z,99862.44
2022-12-24T06:57:22.093Z,99858.19
2022-12-24T06:59:48.775Z,99860.84
2022-12-24T07:02:15.653Z,99869.53
2022-12-24T07:04:42.968Z,99876.59
2022-12-24T07:07:09.655Z,99885.53
2022-12-24T07:09:36.293Z,99887.28
2022-12-24T07:12:03.021Z,99892.56
2022-12-24T07:14:29.630Z,99886.47
2022-12-24T07:16:59.290Z,99899.56
2022-12-24T07:19:26.288Z,99902.38
2022-12-24T07:21:52.960Z,99903.13
2022-12-24T07:24:25.170Z,99911.91
2022-12-24T07:26:52.003Z,99908.41
2022-12-24T07:29:18.752Z,99911.81
2022-12-24T07:31:45.588Z,99911.03
2022-12-24T07:34:51.026Z,99915.72
2022-12-24T07:57:28.373Z,99934.44
2022-12-24T08:00:20.938Z,99937.69
2022-12-24T08:05:54.832Z,99941.06
2022-12-24T08:15:18.510Z,99945.81
2022-12-24T08:38:43.754Z,99972.63
2022-12-24T08:41:31.032Z,99964.88
2022-12-24T08:52:40.198Z,99977.66
2022-12-24T08:56:05.918Z,99984.53
2022-12-24T09:02:53.534Z,99990.41
2022-12-24T09:05:23.308Z,99995.59
2022-12-24T09:07:50.095Z,100009.47
2022-12-24T09:10:20.040Z,100005.97
2022-12-24T09:12:59.193Z,100005.03
2022-12-24T09:15:28.423Z,100009.09
2022-12-24T09:21:32.112Z,100004.72
2022-12-24T09:28:39.031Z,100025.53
2022-12-24T09:32:43.954Z,100030.81
2022-12-24T09:36:29.953Z,100040.13
2022-12-24T09:40:00.896Z,100036.28
2022-12-24T09:44:00.275Z,100032.78
2022-12-24T09:50:28.901Z,100051.41
2022-12-24T09:53:56.154Z,100055.84
2022-12-24T10:05:09.971Z,100074.81
2022-12-24T10:07:46.938Z,100075.03
2022-12-24T10:25:08.390Z,100088.94
2022-12-24T10:28:03.248Z,100098.31
2022-12-24T10:30:30.466Z,100112.28
2022-12-24T10:32:57.447Z,100112.97
2022-12-24T10:35:30.221Z,100109.22
2022-12-24T10:37:58.449Z,100113.63
2022-12-24T10:40:32.821Z,100125.16
2022-12-24T10:42:59.631Z,100122.56
2022-12-24T10:45:32.464Z,100124.09
2022-12-24T10:48:03.526Z,100133.50
2022-12-24T10:50:44.144Z,100135.13
2022-12-24T10:53:18.877Z,100133.22
2022-12-24T10:55:49.230Z,100133.94
2022-12-24T10:58:19.432Z,100139.72
2022-12-24T11:01:20.924Z,100132.91
2022-12-24T11:04:22.860Z,100139.81
2022-12-24T11:07:19.188Z,100141.44
2022-12-24T11:09:58.381Z,100140.81
2022-12-24T11:12:37.116Z,100140.75
2022-12-24T11:15:03.831Z,100151.22
2022-12-24T11:17:30.753Z,100157.34
2022-12-24T11:19:58.877Z,100160.44
2022-12-24T11:22:31.019Z,100157.63
2022-12-24T11:25:23.959Z,100154.38
2022-12-24T11:27:51.871Z,100158.63
2022-12-24T11:30:30.595Z,100164.69
2022-12-24T11:33:14.629Z,100159.31
2022-12-24T11:35:45.741Z,100148.44
2022-12-24T11:38:19.168Z,100150.38
2022-12-24T11:40:49.659Z,100148.59
2022-12-24T11:43:20.952Z,100157.53
2022-12-24T11:45:50.321Z,100169.97
2022-12-24T11:48:37.290Z,100182.25
2022-12-24T11:51:06.554Z,100183.69
2022-12-24T11:53:44.422Z,100178.41
2022-12-24T11:56:38.753Z,100177.63
2022-12-24T11:59:11.954Z,100173.44
2022-12-24T12:01:51.216Z,100180.44
2022-12-24T12:04:43.403Z,100177.88
2022-12-24T12:08:14.402Z,100167.47
2022-12-24T12:14:29.244Z,100184.88
2022-12-24T12:18:04.564Z,100184.38
2022-12-24T12:21:42.481Z,100193.63
2022-12-24T12:25:24.019Z,100190.47
2022-12-24T12:33:10.294Z,100205.72
2022-12-24T12:36:26.856Z,100203.91
2022-12-24T12:39:02.441Z,100199.31
2022-12-24T12:57:24.553Z,100225.22
2022-12-24T12:59:56.102Z,100228.22
2022-12-24T13:02:41.861Z,100229.00
2022-12-24T13:06:02.779Z,100227.56
2022-12-24T13:09:14.611Z,100228.66
2022-12-24T13:11:59.892Z,100233.94
2022-12-24T13:14:45.177Z,100232.97
2022-12-24T13:17:49.938Z,100228.41
2022-12-24T13:20:26.235Z,100231.91
2022-12-24T13:23:08.845Z,100236.13
2022-12-24T13:25:44.221Z,100227.38
2022-12-24T13:28:23.003Z,100234.59
2022-12-24T13:30:54.141Z,100227.47
2022-12-24T13:33:39.425Z,100239.25
2022-12-24T13:36:10.233Z,100249.41
2022-12-24T13:38:49.360Z,100240.66
2022-12-24T13:41:42.196Z,100251.97
2022-12-24T13:44:14.826Z,100256.09
2022-12-24T13:46:56.898Z,100258.75
2022-12-24T13:49:45.918Z,100260.69
2022-12-24T13:52:13.041Z,100263.25
2022-12-24T13:54:59.517Z,100271.25
2022-12-24T13:57:41.676Z,100285.22
2022-12-24T14:00:25.728Z,100268.19
2022-12-24T14:03:15.519Z,100277.22
2022-12-24T14:05:52.606Z,100284.03
2022-12-24T14:08:27.249Z,100291.78
2022-12-24T14:11:09.174Z,100291.78
2022-12-24T14:13:39.052Z,100297.78
2022-12-24T14:16:10.233Z,100305.88
2022-12-24T14:18:41.683Z,100317.28
2022-12-24T14:21:16.007Z,100317.44
2022-12-24T14:23:49.330Z,100321.94
2022-12-24T14:26:19.486Z,100326.31
2022-12-24T14:28:53.144Z,100323.75
2022-12-24T14:31:19.941Z,100324.59
2022-12-24T14:33:46.945Z,100320.94
2022-12-24T14:36:18.437Z,100322.47
2022-12-24T14:38:45.429Z,100323.94
2022-12-24T14:41:31.781Z,100312.78
2022-12-24T14:44:21.492Z,100315.56
2022-12-24T14:47:08.739Z,100312.22
2022-12-24T14:50:00.966Z,100314.88
2022-12-24T14:53:04.087Z,100317.28
2022-12-24T14:55:37.012Z,100330.56
2022-12-24T14:58:36.939Z,100329.56
2022-12-24T15:01:18.276Z,100339.19
2022-12-24T15:03:45.842Z,100340.78
2022-12-24T15:06:13.939Z,100349.50
2022-12-24T15:08:44.912Z,100359.13
2022-12-24T15:11:16.950Z,100356.59
2022-12-24T15:13:46.220Z,100361.91
2022-12-24T15:16:15.800Z,100362.78
2022-12-24T15:18:46.965Z,100364.41
2022-12-24T15:21:21.157Z,100367.16
2022-12-24T15:23:50.091Z,100369.78
2022-12-24T15:26:36.771Z,100372.34
2022-12-24T15:29:33.898Z,100368.16
2022-12-24T15:32:02.325Z,100367.38
2022-12-24T15:34:35.405Z,100377.94
2022-12-24T15:37:11.049Z,100377.94
2022-12-24T15:39:39.422Z,100379.81
2022-12-24T15:42:13.617Z,100385.94
2022-12-24T15:45:06.949Z,100394.78
2022-12-24T15:47:40.055Z,100392.06
2022-12-24T15:50:29.824Z,100399.78
2022-12-24T15:53:19.542Z,100391.75
2022-12-24T15:55:47.976Z,100400.94
2022-12-24T15:58:17.707Z,100391.06
2022-12-24T16:00:44.724Z,100399.59
2022-12-24T16:03:20.795Z,100403.94
2022-12-24T16:05:59.261Z,100409.16
2022-12-24T16:08:28.766Z,100410.03
2022-12-24T16:11:10.057Z,100408.41
2022-12-24T16:13:40.558Z,100422.88
2022-12-24T16:16:11.385Z,100417.59
2022-12-24T16:18:57.379Z,100424.78
2022-12-24T16:21:26.492Z,100428.19
2022-12-24T16:23:55.740Z,100439.53
2022-12-24T16:26:22.669Z,100440.16
2022-12-24T16:28:49.858Z,100447.13
2022-12-24T16:31:30.531Z,100448.13
2022-12-24T16:33:59.127Z,100449.09
2022-12-24T16:36:26.429Z,100450.84
2022-12-24T16:39:11.842Z,100448.22
2022-12-24T16:41:57.443Z,100455.28
2022-12-24T16:44:24.219Z,100449.09
2022-12-24T16:46:52.950Z,100446.53
2022-12-24T16:49:20.894Z,100450.78
2022-12-24T16:51:47.804Z,100447.38
2022-12-24T16:54:15.265Z,100451.94
2022-12-24T16:56:42.679Z,100459.13
2022-12-24T16:59:15.721Z,100465.25
2022-12-24T17:01:42.508Z,100468.13
2022-12-24T17:04:09.365Z,100466.25
2022-12-24T17:06:36.590Z,100464.63
2022-12-24T17:09:03.966Z,100472.47
2022-12-24T17:11:30.770Z,100476.06
2022-12-24T17:13:57.720Z,100482.09
2022-12-24T17:16:24.626Z,100477.06
2022-12-24T17:18:52.247Z,100482.19
2022-12-24T17:21:19.961Z,100494.56
2022-12-24T17:23:46.818Z,100491.97
2022-12-24T17:26:15.449Z,100488.69
2022-12-24T17:28:42.882Z,100493.84
2022-12-24T17:31:15.266Z,100503.53
2022-12-24T17:33:42.761Z,100499.13
2022-12-24T17:36:09.689Z,100495.88
2022-12-24T17:38:37.482Z,100491.41
2022-12-24T17:41:10.407Z,100499.25
2022-12-24T17:43:37.841Z,100502.06
2022-12-24T17:46:06.398Z,100510.00
2022-12-24T17:48:33.500Z,100514.50
2022-12-24T17:51:08.477Z,100511.94
2022-12-24T17:53:36.642Z,100527.09
2022-12-24T17:56:03.842Z,100526.38
2022-12-24T17:58:30.559Z,100525.59
2022-12-24T18:00:57.536Z,100529.31
2022-12-24T18:03:24.308Z,100538.19
2022-12-24T18:05:52.152Z,100545.31
2022-12-24T18:08:19.619Z,100541.75
2022-12-24T18:10:46.865Z,100546.41
2022-12-24T18:13:19.111Z,100545.53
2022-12-24T18:15:46.313Z,100541.28
2022-12-24T18:18:13.227Z,100541.47
2022-12-24T18:20:46.308Z,100549.31
2022-12-24T18:23:13.821Z,100543.34
2022-12-24T18:25:40.598Z,100545.03
2022-12-24T18:28:07.395Z,100550.25
2022-12-24T18:30:34.122Z,100551.13
2022-12-24T18:33:01.177Z,100553.69
2022-12-24T18:35:28.342Z,100549.41
2022-12-24T18:37:55.117Z,100556.75
2022-12-24T18:40:21.916Z,100560.63
2022-12-24T18:42:48.704Z,100566.84
2022-12-24T18:45:15.642Z,100571.19
2022-12-24T18:47:42.320Z,100580.78
2022-12-24T18:50:12.312Z,100585.00
2022-12-24T18:52:39.043Z,100587.59
2022-12-24T18:55:06.067Z,100582.34
2022-12-24T18:57:32.858Z,100579.09
2022-12-24T18:59:59.741Z,100585.16
2022-12-24T19:02:26.553Z,100591.22
2022-12-24T19:04:53.393Z,100594.72
2022-12-24T19:07:20.176Z,100605.00
2022-12-24T19:09:48.502Z,100599.72
2022-12-24T19:12:15.874Z,100603.13
2022-12-24T19:14:43.942Z,100602.91
2022-12-24T19:17:13.276Z,100602.75
2022-12-24T19:19:40.287Z,100598.47
2022-12-24T19:22:50.597Z,100592.31
2022-12-24T19:25:24.969Z,100589.69
2022-12-24T19:27:59.612Z,100599.78
2022-12-24T19:30:52.593Z,100596.78
2022-12-24T19:33:22.760Z,100610.63
2022-12-24T19:35:58.367Z,100613.63
2022-12-24T19:38:27.651Z,100616.53
2022-12-24T19:40:54.365Z,100618.13
2022-12-24T19:43:21.126Z,100612.84
2022-12-24T19:52:58.449Z,100628.00
2022-12-24T19:55:29.343Z,100623.50
2022-12-24T19:58:11.557Z,100626.75
2022-12-24T20:01:00.132Z,100619.63
2022-12-24T20:06:48.266Z,100624.13
2022-12-24T20:16:11.479Z,100624.03
2022-12-24T20:19:18.743Z,100629.28
2022-12-24T20:22:25.911Z,100625.94
2022-12-24T20:33:26.825Z,100645.06
2022-12-24T20:35:53.683Z,100645.94
2022-12-24T20:42:41.973Z,100645.63
2022-12-24T20:44:38.278Z,100646.50
2022-12-24T20:47:08.890Z,100650.47
2022-12-24T20:50:00.989Z,100644.19
2022-12-24T20:53:05.625Z,100658.47
2022-12-24T20:55:38.568Z,100662.91
2022-12-24T20:58:05.419Z,100658.47
2022-12-24T21:00:32.253Z,100654.81
2022-12-24T21:03:01.259Z,100666.31
2022-12-24T21:05:28.138Z,100663.63
2022-12-24T21:07:54.976Z,100666.31
2022-12-24T21:10:21.910Z,100669.19
2022-12-24T21:12:48.745Z,100670.81
2022-12-24T21:15:21.431Z,100675.31
2022-12-24T21:17:48.701Z,100666.25
2022-12-24T21:20:18.735Z,100669.81
2022-12-24T21:23:11.089Z,100681.81
2022-12-24T21:30:39.627Z,100697.97
2022-12-24T21:37:00.895Z,100690.81
2022-12-24T21:39:50.327Z,100699.28
2022-12-24T21:45:53.958Z,100706.22
2022-12-24T21:48:54.553Z,100698.38
2022-12-24T21:51:32.391Z,100708.94
2022-12-24T21:54:44.344Z,100713.13
2022-12-24T22:00:56.521Z,100719.72
2022-12-24T22:03:41.634Z,100724.13
2022-12-24T22:06:49.924Z,100723.16
2022-12-24T22:09:41.281Z,100730.19
2022-12-24T22:12:08.767Z,100728.22
2022-12-24T22:14:44.424Z,100739.56
2022-12-24T22:17:29.078Z,100739.88
2022-12-24T22:20:36.253Z,100733.72
2022-12-24T22:23:27.973Z,100746.88
2022-12-24T22:26:34.422Z,100741.59
2022-12-24T22:29:18.642Z,100738.13
2022-12-24T22:31:56.281Z,100745.81
2022-12-24T22:34:44.696Z,100745.84
2022-12-24T22:37:18.647Z,100738.81
2022-12-24T22:39:46.839Z,100754.72
2022-12-24T22:42:17.275Z,100759.16
2022-12-24T22:44:46.840Z,100757.56
2022-12-24T22:47:23.297Z,100754.97
2022-12-24T22:50:06.492Z,100759.28
2022-12-24T22:53:00.348Z,100758.47
2022-12-24T22:55:48.793Z,100754.41
2022-12-24T22:58:37.405Z,100766.56
2022-12-24T23:01:13.423Z,100774.50
2022-12-24T23:03:42.713Z,100778.84
2022-12-24T23:06:28.283Z,100780.56
2022-12-24T23:09:21.314Z,100777.84
2022-12-24T23:11:49.272Z,100788.41
2022-12-24T23:14:40.380Z,100793.06
2022-12-24T23:17:08.748Z,100801.06
2022-12-24T23:19:38.003Z,100793.91
2022-12-24T23:22:11.985Z,100801.75
2022-12-24T23:24:39.540Z,100790.41
2022-12-24T23:27:17.084Z,100795.63
2022-12-24T23:29:44.691Z,100786.97
2022-12-24T23:32:11.808Z,100792.06
2022-12-24T23:34:38.675Z,100794.56
2022-12-24T23:37:05.622Z,100789.34
2022-12-24T23:39:32.490Z,100794.78
2022-12-24T23:41:59.282Z,100794.91
2022-12-24T23:44:32.039Z,100800.16
2022-12-24T23:47:00.079Z,100793.13
2022-12-24T23:49:27.391Z,100793.13
2022-12-24T23:51:54.380Z,100783.50
2022-12-24T23:54:21.361Z,100787.22
2022-12-24T23:56:48.637Z,100783.84
2022-12-24T23:59:17.765Z,100786.41
